Terminal Aerodrome Forecast
Issued by NWS Portland, OR

Home | Current Version | Previous Version | Text Only | Print | Product List | Glossary On
Versions: 1 2 3 4 5 6 7 8 9 10 11 12 13 14 15 16 17 18 19
000
FTUS46 KPQR 211720
TAFSLE
TAF
KSLE 211720Z 2118/2218 34004KT P6SM BKN025
     FM211900 35004KT P6SM FEW030
     FM212100 36007KT P6SM SKC
     FM220300 36004KT P6SM SKC
     FM220600 VRB03KT P6SM SKC=

USA.gov is the U.S. government's official web portal to all federal, state and local government web resources and services.